Macheng, China
Current Conditions -  °F | °C
As of 2:00 AM on Friday 24 Oct 2014 (Local Time) from ZHHH Reporting Station
Haze Haze  
Wind Chill: 57°   Ceiling: Unl
Heat Index: 57°   Visibility: 1.8mi
Dew Point: 57°   Wind: 4mph
Humidity: 100%   Direction: 80°E
Pressure: 30.03"   Gusts: NA
Location:  31.18°N, 115.03°E
Report Text: ZHHH 231800Z 08002MPS 3000 BR NSC 14/14 Q1017 NOSIG
Loading
Personal Weather Stations






























Interactive Weather Map
Tropical Storm Tracking
New forecast layout! Learn more

10-Day Weather Forecast

Advertisements
Track Severe Weather on mobile